createdAt,value
2019-04-23T00:04:07.230Z,16.00
2019-04-23T00:06:40.810Z,15.90
2019-04-23T00:09:09.228Z,15.90
2019-04-23T00:11:32.552Z,15.80
2019-04-23T00:14:05.998Z,15.80
2019-04-23T00:16:38.393Z,15.70
2019-04-23T00:19:10.274Z,15.70
2019-04-23T00:22:17.389Z,15.70
2019-04-23T00:27:29.286Z,15.60
2019-04-23T00:30:06.546Z,15.60
2019-04-23T00:32:23.132Z,15.50
2019-04-23T00:34:57.710Z,15.50
2019-04-23T00:42:25.746Z,15.40
2019-04-23T00:44:51.510Z,15.30
2019-04-23T00:47:25.643Z,15.30
2019-04-23T00:50:03.897Z,15.30
2019-04-23T00:52:30.518Z,15.30
2019-04-23T00:55:07.272Z,15.20
2019-04-23T00:57:32.618Z,15.20
2019-04-23T01:00:10.542Z,15.10
2019-04-23T01:05:04.631Z,15.10
2019-04-23T01:07:31.855Z,15.10
2019-04-23T01:10:08.356Z,15.00
2019-04-23T01:12:38.272Z,15.00
2019-04-23T01:15:16.529Z,15.00
2019-04-23T01:17:39.901Z,15.00
2019-04-23T01:20:14.613Z,14.90
2019-04-23T01:22:27.334Z,14.90
2019-04-23T01:25:09.772Z,14.90
2019-04-23T01:28:07.606Z,14.90
2019-04-23T01:30:40.654Z,14.80
2019-04-23T01:33:14.194Z,14.70
2019-04-23T01:35:52.960Z,14.60
2019-04-23T01:38:11.479Z,14.60
2019-04-23T01:40:46.104Z,14.60
2019-04-23T01:43:17.945Z,14.50
2019-04-23T01:45:43.781Z,14.50
2019-04-23T01:48:13.139Z,14.40
2019-04-23T01:50:48.692Z,14.40
2019-04-23T01:53:18.383Z,14.40
2019-04-23T01:55:46.916Z,14.40
2019-04-23T01:58:32.178Z,14.40
2019-04-23T02:00:47.497Z,14.30
2019-04-23T02:03:22.182Z,14.30
2019-04-23T02:06:00.034Z,14.20
2019-04-23T02:08:26.185Z,14.20
2019-04-23T02:13:32.382Z,14.10
2019-04-23T02:15:53.413Z,14.10
2019-04-23T02:18:43.915Z,14.00
2019-04-23T02:20:59.582Z,13.90
2019-04-23T02:24:00.102Z,13.80
2019-04-23T02:26:20.034Z,13.90
2019-04-23T02:31:44.557Z,13.70
2019-04-23T02:36:39.833Z,13.70
2019-04-23T02:39:26.403Z,13.60
2019-04-23T02:41:34.994Z,13.60
2019-04-23T02:46:45.412Z,13.50
2019-04-23T02:49:22.090Z,13.40
2019-04-23T02:51:42.458Z,13.40
2019-04-23T02:54:33.168Z,13.40
2019-04-23T02:56:51.442Z,13.40
2019-04-23T03:01:39.987Z,13.20
2019-04-23T03:06:55.863Z,13.20
2019-04-23T03:11:58.427Z,13.10
2019-04-23T03:14:33.447Z,13.20
2019-04-23T03:19:38.014Z,13.10
2019-04-23T03:25:23.195Z,13.00
2019-04-23T03:30:16.277Z,12.90
2019-04-23T03:34:26.490Z,12.90
2019-04-23T03:35:09.837Z,12.90
2019-04-23T03:43:01.308Z,12.70
2019-04-23T03:48:08.450Z,12.70
2019-04-23T03:50:39.438Z,12.60
2019-04-23T03:53:07.200Z,12.60
2019-04-23T03:55:37.373Z,12.50
2019-04-23T03:58:14.370Z,12.50
2019-04-23T04:00:45.904Z,12.50
2019-04-23T04:03:26.991Z,12.50
2019-04-23T04:06:03.645Z,12.50
2019-04-23T04:10:55.044Z,12.40
2019-04-23T04:13:20.031Z,12.40
2019-04-23T04:18:30.992Z,12.40
2019-04-23T04:20:49.381Z,12.30
2019-04-23T04:23:27.685Z,12.40
2019-04-23T04:25:49.920Z,12.30
2019-04-23T04:35:57.881Z,12.20
2019-04-23T04:38:36.467Z,12.20
2019-04-23T04:43:47.593Z,12.20
2019-04-23T04:46:05.390Z,12.20
2019-04-23T04:48:23.064Z,12.20
2019-04-23T04:51:00.345Z,12.20
2019-04-23T04:53:35.680Z,12.20
2019-04-23T04:55:54.888Z,12.20
2019-04-23T04:58:39.287Z,12.20
2019-04-23T05:01:01.411Z,12.20
2019-04-23T05:03:25.902Z,12.20
2019-04-23T05:06:05.011Z,12.20
2019-04-23T05:08:25.966Z,12.10
2019-04-23T05:11:01.746Z,12.10
2019-04-23T05:15:50.070Z,12.10
2019-04-23T05:23:42.749Z,12.20
2019-04-23T05:26:20.958Z,12.30
2019-04-23T05:28:57.130Z,12.20
2019-04-23T05:31:18.998Z,12.20
2019-04-23T05:33:52.341Z,12.20
2019-04-23T05:39:07.617Z,12.20
2019-04-23T05:41:26.969Z,12.30
2019-04-23T05:43:57.357Z,12.30
2019-04-23T05:46:33.120Z,12.30
2019-04-23T05:51:33.516Z,12.40
2019-04-23T05:53:51.356Z,12.40
2019-04-23T05:56:27.429Z,12.50
2019-04-23T05:59:04.177Z,12.60
2019-04-23T06:09:10.551Z,12.80
2019-04-23T06:16:42.657Z,13.20
2019-04-23T06:19:14.176Z,13.30
2019-04-23T06:21:52.934Z,13.40
2019-04-23T06:24:17.033Z,13.40
2019-04-23T06:29:19.379Z,13.20
2019-04-23T06:31:47.458Z,13.30
2019-04-23T06:34:17.835Z,13.30
2019-04-23T06:36:46.653Z,13.20
2019-04-23T06:39:12.964Z,13.20
2019-04-23T06:41:44.850Z,13.10
2019-04-23T06:44:19.286Z,13.10
2019-04-23T06:46:56.883Z,13.10
2019-04-23T06:49:30.647Z,13.00
2019-04-23T06:52:10.522Z,13.20
2019-04-23T06:54:36.139Z,13.20
2019-04-23T06:57:10.739Z,13.20
2019-04-23T06:59:27.750Z,13.30
2019-04-23T07:02:12.043Z,13.40
2019-04-23T07:04:36.077Z,13.50
2019-04-23T07:09:26.308Z,13.40
2019-04-23T07:14:38.659Z,13.70
2019-04-23T07:16:55.922Z,13.70
2019-04-23T07:19:39.454Z,13.70
2019-04-23T07:22:10.005Z,13.80
2019-04-23T07:24:36.280Z,13.90
2019-04-23T07:27:03.599Z,13.80
2019-04-23T07:29:52.744Z,14.10
2019-04-23T07:32:31.257Z,14.10
2019-04-23T07:35:11.650Z,14.30
2019-04-23T07:37:31.963Z,14.40
2019-04-23T07:40:22.932Z,14.30
2019-04-23T07:42:58.347Z,14.30
2019-04-23T07:45:47.086Z,14.30
2019-04-23T07:55:48.552Z,14.70
2019-04-23T07:58:14.363Z,14.80
2019-04-23T08:03:17.281Z,14.80
2019-04-23T08:05:44.059Z,14.80
2019-04-23T08:08:07.263Z,14.80
2019-04-23T08:10:53.867Z,15.10
2019-04-23T08:13:15.605Z,15.20
2019-04-23T08:23:58.623Z,15.60
2019-04-23T08:26:48.221Z,15.80
2019-04-23T08:29:29.370Z,15.80
2019-04-23T08:31:50.366Z,15.40
2019-04-23T08:36:48.616Z,15.50
2019-04-23T08:39:30.473Z,15.50
2019-04-23T08:42:10.975Z,15.60
2019-04-23T08:44:54.183Z,15.90
2019-04-23T08:47:17.121Z,16.00
2019-04-23T08:49:47.609Z,16.10
2019-04-23T08:52:18.340Z,16.30
2019-04-23T08:55:04.271Z,16.60
2019-04-23T08:57:18.317Z,16.50
2019-04-23T09:02:31.254Z,16.60
2019-04-23T09:10:04.697Z,17.00
2019-04-23T09:12:36.928Z,17.30
2019-04-23T09:15:13.022Z,17.50
2019-04-23T09:17:41.096Z,17.40
2019-04-23T09:22:36.447Z,17.90
2019-04-23T09:25:14.803Z,17.80
2019-04-23T09:27:39.830Z,18.00
2019-04-23T09:30:07.645Z,18.60
2019-04-23T09:32:36.731Z,18.60
2019-04-23T09:35:27.411Z,18.90
2019-04-23T09:38:16.530Z,18.60
2019-04-23T09:43:38.567Z,18.90
2019-04-23T09:46:27.323Z,19.50
2019-04-23T09:49:03.522Z,20.30
2019-04-23T09:53:57.725Z,20.60
2019-04-23T09:56:33.736Z,21.30
2019-04-23T09:59:01.217Z,21.90
2019-04-23T10:01:25.881Z,21.60
2019-04-23T10:03:45.094Z,21.80
2019-04-23T10:06:09.654Z,22.00
2019-04-23T10:08:36.412Z,22.00
2019-04-23T10:11:01.083Z,21.70
2019-04-23T10:13:29.668Z,21.60
2019-04-23T10:15:58.133Z,22.00
2019-04-23T10:18:29.100Z,22.10
2019-04-23T10:20:56.950Z,21.50
2019-04-23T10:23:29.551Z,22.50
2019-04-23T10:25:58.259Z,23.50
2019-04-23T10:28:29.844Z,24.50
2019-04-23T10:30:58.607Z,24.60
2019-04-23T10:33:27.535Z,24.10
2019-04-23T10:36:02.334Z,24.00
2019-04-23T10:38:26.709Z,24.10
2019-04-23T10:40:56.233Z,25.10
2019-04-23T10:43:27.664Z,25.40
2019-04-23T10:46:23.195Z,25.60
2019-04-23T10:49:31.779Z,26.20
2019-04-23T10:51:51.606Z,26.10
2019-04-23T11:04:54.092Z,26.30
2019-04-23T11:07:26.951Z,26.10
2019-04-23T11:20:26.121Z,29.90
2019-04-23T11:27:43.378Z,28.50
2019-04-23T11:30:25.854Z,29.00
2019-04-23T11:35:22.774Z,29.30
2019-04-23T11:40:15.863Z,29.80
2019-04-23T11:42:51.373Z,29.40
2019-04-23T11:45:26.328Z,28.70
2019-04-23T11:48:23.969Z,29.40
2019-04-23T11:50:27.844Z,28.90
2019-04-23T11:57:59.189Z,30.40
2019-04-23T12:00:31.491Z,29.20
2019-04-23T12:03:01.738Z,29.80
2019-04-23T12:06:17.219Z,29.80
2019-04-23T12:09:17.737Z,29.80
2019-04-23T12:11:52.806Z,29.70
2019-04-23T12:22:16.859Z,29.80
2019-04-23T12:27:13.852Z,29.30
2019-04-23T12:35:04.299Z,30.00
2019-04-23T12:37:49.374Z,29.50
2019-04-23T12:40:19.871Z,28.40
2019-04-23T12:42:59.064Z,28.40
2019-04-23T12:48:30.748Z,28.80
2019-04-23T12:50:50.132Z,28.20
2019-04-23T12:53:29.291Z,27.70
2019-04-23T12:58:20.358Z,28.10
2019-04-23T13:00:57.773Z,28.40
2019-04-23T13:06:01.781Z,28.00
2019-04-23T13:08:39.237Z,27.90
2019-04-23T13:10:46.981Z,29.00
2019-04-23T13:13:24.214Z,29.90
2019-04-23T13:15:48.551Z,30.30
2019-04-23T13:18:23.697Z,29.50
2019-04-23T13:20:50.027Z,30.60
2019-04-23T13:31:12.988Z,33.20
2019-04-23T13:33:39.108Z,33.00
2019-04-23T13:36:18.852Z,32.40
2019-04-23T13:41:17.398Z,31.50
2019-04-23T13:43:41.009Z,31.20
2019-04-23T13:46:13.839Z,30.50
2019-04-23T13:48:36.332Z,31.30
2019-04-23T13:51:20.767Z,31.20
2019-04-23T13:54:01.719Z,31.40
2019-04-23T13:59:12.017Z,30.30
2019-04-23T14:01:30.868Z,31.20
2019-04-23T14:04:04.269Z,30.50
2019-04-23T14:06:36.637Z,30.00
2019-04-23T14:08:59.780Z,29.30
2019-04-23T14:19:06.910Z,29.10
2019-04-23T14:21:47.167Z,28.30
2019-04-23T14:24:31.716Z,28.20
2019-04-23T14:26:46.154Z,28.00
2019-04-23T14:29:31.912Z,27.20
2019-04-23T14:31:53.315Z,27.40
2019-04-23T14:34:19.349Z,27.30
2019-04-23T14:36:57.737Z,26.90
2019-04-23T14:41:53.342Z,27.50
2019-04-23T14:44:22.467Z,27.10
2019-04-23T14:47:07.438Z,26.50
2019-04-23T14:49:56.694Z,26.60
2019-04-23T14:52:12.257Z,26.60
2019-04-23T14:55:22.665Z,27.20
2019-04-23T14:59:54.030Z,25.90
2019-04-23T15:02:27.139Z,25.80
2019-04-23T15:04:56.469Z,25.20
2019-04-23T15:07:31.333Z,25.10
2019-04-23T15:10:06.536Z,25.20
2019-04-23T15:12:31.521Z,25.20
2019-04-23T15:17:36.217Z,25.20
2019-04-23T15:20:03.390Z,25.40
2019-04-23T15:22:42.432Z,25.20
2019-04-23T15:25:23.845Z,25.20
2019-04-23T15:29:58.281Z,25.10
2019-04-23T15:35:25.368Z,24.90
2019-04-23T15:38:10.404Z,24.90
2019-04-23T15:40:18.329Z,24.80
2019-04-23T15:42:52.021Z,24.80
2019-04-23T15:45:19.297Z,24.50
2019-04-23T15:47:49.317Z,24.60
2019-04-23T15:50:22.648Z,25.00
2019-04-23T15:55:12.308Z,24.40
2019-04-23T15:58:04.355Z,24.50
2019-04-23T16:00:13.000Z,24.40
2019-04-23T16:02:21.914Z,24.80
2019-04-23T16:04:53.175Z,25.40
2019-04-23T16:07:37.230Z,25.70
2019-04-23T16:12:54.714Z,25.40
2019-04-23T16:15:16.739Z,25.70
2019-04-23T16:18:07.882Z,25.50
2019-04-23T16:20:40.879Z,24.70
2019-04-23T16:22:58.023Z,24.40
2019-04-23T16:25:31.745Z,24.30
2019-04-23T16:28:09.444Z,24.40
2019-04-23T16:33:11.146Z,24.50
2019-04-23T16:35:58.480Z,24.20
2019-04-23T16:38:34.213Z,23.90
2019-04-23T16:40:49.382Z,24.10
2019-04-23T16:43:19.816Z,24.10
2019-04-23T16:46:04.148Z,24.20
2019-04-23T16:48:40.583Z,24.00
2019-04-23T16:51:16.688Z,23.90
2019-04-23T16:56:18.650Z,24.00
2019-04-23T16:58:33.559Z,24.10
2019-04-23T17:01:07.240Z,24.50
2019-04-23T17:06:03.958Z,24.70
2019-04-23T17:13:30.096Z,24.40
2019-04-23T17:16:09.933Z,24.10
2019-04-23T17:18:33.222Z,23.90
2019-04-23T17:20:56.021Z,23.60
2019-04-23T17:23:38.828Z,23.50
2019-04-23T17:26:02.740Z,23.30
2019-04-23T17:28:31.440Z,23.30
2019-04-23T17:31:18.894Z,23.00
2019-04-23T17:33:34.733Z,22.80
2019-04-23T17:38:56.977Z,22.70
2019-04-23T17:44:18.452Z,22.50
2019-04-23T17:46:34.220Z,22.40
2019-04-23T17:49:10.917Z,22.30
2019-04-23T17:51:40.410Z,22.30
2019-04-23T17:54:17.418Z,22.30
2019-04-23T17:57:04.527Z,22.20
2019-04-23T17:59:22.995Z,22.00
2019-04-23T18:01:54.276Z,22.00
2019-04-23T18:04:23.942Z,21.80
2019-04-23T18:06:53.595Z,21.80
2019-04-23T18:11:47.589Z,21.70
2019-04-23T18:14:13.241Z,21.50
2019-04-23T18:16:51.712Z,21.50
2019-04-23T18:19:12.728Z,21.40
2019-04-23T18:24:50.693Z,21.20
2019-04-23T18:27:21.073Z,21.20
2019-04-23T18:30:02.726Z,21.10
2019-04-23T18:33:12.233Z,20.90
2019-04-23T18:37:52.385Z,20.60
2019-04-23T18:40:21.465Z,20.50
2019-04-23T18:42:53.485Z,20.40
2019-04-23T18:45:23.949Z,20.30
2019-04-23T18:50:29.202Z,20.20
2019-04-23T18:55:29.437Z,20.10
2019-04-23T18:58:03.337Z,19.90
2019-04-23T19:00:24.959Z,19.70
2019-04-23T19:03:14.592Z,19.70
2019-04-23T19:06:06.970Z,19.60
2019-04-23T19:11:37.306Z,19.60
2019-04-23T19:13:51.140Z,19.50
2019-04-23T19:16:31.634Z,19.40
2019-04-23T19:18:56.546Z,19.40
2019-04-23T19:21:46.836Z,19.30
2019-04-23T19:26:45.850Z,19.10
2019-04-23T19:28:58.048Z,19.10
2019-04-23T19:31:55.627Z,19.10
2019-04-23T19:44:24.578Z,18.90
2019-04-23T19:46:58.256Z,18.80
2019-04-23T19:49:25.383Z,18.70
2019-04-23T19:51:47.849Z,18.60
2019-04-23T19:54:25.935Z,18.50
2019-04-23T19:59:23.334Z,18.60
2019-04-23T20:01:55.362Z,18.50
2019-04-23T20:04:18.269Z,18.50
2019-04-23T20:07:04.389Z,18.30
2019-04-23T20:14:19.308Z,18.30
2019-04-23T20:19:30.104Z,18.30
2019-04-23T20:22:00.215Z,18.20
2019-04-23T20:24:44.380Z,18.20
2019-04-23T20:35:11.520Z,18.00
2019-04-23T20:38:25.281Z,18.00
2019-04-23T20:40:24.310Z,18.10
2019-04-23T20:45:41.021Z,18.20
2019-04-23T20:50:34.522Z,18.10
2019-04-23T20:52:57.464Z,18.10
2019-04-23T20:56:07.232Z,18.10
2019-04-23T20:58:44.019Z,18.00
2019-04-23T21:01:18.710Z,18.00
2019-04-23T21:03:55.212Z,17.90
2019-04-23T21:09:11.280Z,18.00
2019-04-23T21:11:12.657Z,18.00
2019-04-23T21:14:01.666Z,17.90
2019-04-23T21:16:36.020Z,18.00
2019-04-23T21:19:02.680Z,17.90
2019-04-23T21:21:42.963Z,17.90
2019-04-23T21:24:07.125Z,17.80
2019-04-23T21:26:41.938Z,17.90
2019-04-23T21:29:07.347Z,17.80
2019-04-23T21:34:19.465Z,17.70
2019-04-23T21:36:49.424Z,17.70
2019-04-23T21:44:59.374Z,17.50
2019-04-23T21:47:45.978Z,17.50
2019-04-23T21:50:19.239Z,17.50
2019-04-23T21:52:40.406Z,17.40
2019-04-23T21:55:10.934Z,17.30
2019-04-23T21:58:10.495Z,17.30
2019-04-23T22:00:17.311Z,17.30
2019-04-23T22:02:54.080Z,17.30
2019-04-23T22:05:28.404Z,17.20
2019-04-23T22:07:57.827Z,17.10
2019-04-23T22:10:42.372Z,17.10
2019-04-23T22:13:02.570Z,17.10
2019-04-23T22:15:43.173Z,17.00
2019-04-23T22:17:49.597Z,17.00
2019-04-23T22:20:27.824Z,17.00
2019-04-23T22:23:05.106Z,17.00
2019-04-23T22:25:22.343Z,16.90
2019-04-23T22:27:54.794Z,16.90
2019-04-23T22:33:02.586Z,16.70
2019-04-23T22:35:24.309Z,16.70
2019-04-23T22:38:09.745Z,16.70
2019-04-23T22:40:25.920Z,16.70
2019-04-23T22:45:40.208Z,16.70
2019-04-23T22:48:04.723Z,16.70
2019-04-23T22:50:44.581Z,16.70
2019-04-23T22:53:10.969Z,16.70
2019-04-23T22:55:47.594Z,16.70
2019-04-23T22:58:09.749Z,16.70
2019-04-23T23:00:58.901Z,16.60
2019-04-23T23:03:33.741Z,16.60
2019-04-23T23:06:11.069Z,16.60
2019-04-23T23:11:05.921Z,16.50
2019-04-23T23:16:21.593Z,16.50
2019-04-23T23:18:35.849Z,16.50
2019-04-23T23:21:16.350Z,16.50
2019-04-23T23:23:43.978Z,16.40
2019-04-23T23:28:40.803Z,16.30
2019-04-23T23:36:12.539Z,16.10
2019-04-23T23:38:52.676Z,16.10
2019-04-23T23:43:54.414Z,15.90
2019-04-23T23:46:22.122Z,15.90
2019-04-23T23:48:42.276Z,15.90
2019-04-23T23:56:15.803Z,15.70
